IBS1683 LEMD-LEPA
Flight info
| Callsign | IBS1683 |
|---|---|
| Flight time | 0h 57m |
| Altitude | 30000 |
| Route | NANDO T257 FENXE/N0444F320 T257 LASPO/N0415F260 M871 GODOX |
| Aircraft | A320/M-SDE3FGHIRWY/LB1 |
Departure
| Time | 2026-05-04 20:10 |
|---|---|
| Airport | Adolfo Suárez Madrid–Barajas Airport (LEMD) |
Arrival
| Time | 2026-05-04 21:07 |
|---|---|
| Airport | Palma de Mallorca Airport (LEPA) |
| Time | Latitude | Longitude | Altitude | Speed | Heading |
|---|---|---|---|---|---|
| 2026-05-04 19:36 | 40.49568 | -3.59179 | 1983 ft | 0 kts | 91° |
| 2026-05-04 19:39 | 40.49568 | -3.59180 | 1981 ft | 0 kts | 91° |
| 2026-05-04 19:55 | 40.49567 | -3.59210 | 1981 ft | 4 kts | 73° |
| 2026-05-04 19:55 | 40.49555 | -3.59237 | 1982 ft | 4 kts | 18° |
| 2026-05-04 19:55 | 40.49546 | -3.59240 | 1981 ft | 0 kts | 0° |
| 2026-05-04 19:58 | 40.49561 | -3.59240 | 1980 ft | 9 kts | 0° |
| 2026-05-04 19:58 | 40.49648 | -3.59240 | 1980 ft | 14 kts | 0° |
| 2026-05-04 19:58 | 40.49739 | -3.59235 | 1982 ft | 11 kts | 29° |
| 2026-05-04 19:59 | 40.49747 | -3.59149 | 1984 ft | 9 kts | 90° |
| 2026-05-04 19:59 | 40.49746 | -3.59074 | 1981 ft | 9 kts | 90° |
| 2026-05-04 19:59 | 40.49745 | -3.58947 | 1980 ft | 15 kts | 90° |
| 2026-05-04 19:59 | 40.49739 | -3.58820 | 1982 ft | 13 kts | 103° |
| 2026-05-04 20:00 | 40.49735 | -3.58682 | 1982 ft | 18 kts | 90° |
| 2026-05-04 20:00 | 40.49736 | -3.58526 | 1980 ft | 16 kts | 90° |
| 2026-05-04 20:00 | 40.49736 | -3.58389 | 1980 ft | 14 kts | 90° |
| 2026-05-04 20:00 | 40.49736 | -3.58267 | 1980 ft | 12 kts | 90° |
| 2026-05-04 20:01 | 40.49737 | -3.58161 | 1980 ft | 11 kts | 90° |
| 2026-05-04 20:01 | 40.49737 | -3.58060 | 1980 ft | 11 kts | 90° |
| 2026-05-04 20:01 | 40.49731 | -3.57965 | 1980 ft | 10 kts | 113° |
| 2026-05-04 20:01 | 40.49666 | -3.57942 | 1980 ft | 15 kts | 180° |
| 2026-05-04 20:02 | 40.49562 | -3.57940 | 1980 ft | 15 kts | 179° |
| 2026-05-04 20:02 | 40.49453 | -3.57940 | 1982 ft | 16 kts | 180° |
| 2026-05-04 20:02 | 40.49331 | -3.57939 | 1980 ft | 20 kts | 179° |
| 2026-05-04 20:02 | 40.49169 | -3.57939 | 1980 ft | 24 kts | 180° |
| 2026-05-04 20:03 | 40.49003 | -3.57937 | 1980 ft | 21 kts | 180° |
| 2026-05-04 20:03 | 40.48875 | -3.57928 | 1982 ft | 17 kts | 153° |
| 2026-05-04 20:03 | 40.48859 | -3.57803 | 1980 ft | 14 kts | 89° |
| 2026-05-04 20:03 | 40.48860 | -3.57678 | 1980 ft | 14 kts | 90° |
| 2026-05-04 20:04 | 40.48859 | -3.57560 | 1980 ft | 12 kts | 90° |
| 2026-05-04 20:04 | 40.48859 | -3.57429 | 1980 ft | 14 kts | 88° |
| 2026-05-04 20:04 | 40.48860 | -3.57301 | 1980 ft | 17 kts | 90° |
| 2026-05-04 20:04 | 40.48860 | -3.57079 | 1980 ft | 29 kts | 90° |
| 2026-05-04 20:05 | 40.48863 | -3.56812 | 1980 ft | 30 kts | 89° |
| 2026-05-04 20:05 | 40.48862 | -3.56546 | 1980 ft | 27 kts | 90° |
| 2026-05-04 20:05 | 40.48863 | -3.56328 | 1980 ft | 18 kts | 89° |
| 2026-05-04 20:05 | 40.48934 | -3.56249 | 1980 ft | 16 kts | 358° |
| 2026-05-04 20:06 | 40.49050 | -3.56250 | 1980 ft | 17 kts | 359° |
| 2026-05-04 20:06 | 40.49175 | -3.56248 | 1980 ft | 19 kts | 0° |
| 2026-05-04 20:06 | 40.49310 | -3.56248 | 1990 ft | 20 kts | 358° |
| 2026-05-04 20:06 | 40.49455 | -3.56252 | 1980 ft | 21 kts | 360° |
| 2026-05-04 20:07 | 40.49608 | -3.56253 | 1980 ft | 23 kts | 359° |
| 2026-05-04 20:07 | 40.49770 | -3.56253 | 1982 ft | 24 kts | 0° |
| 2026-05-04 20:07 | 40.49920 | -3.56255 | 1980 ft | 19 kts | 356° |
| 2026-05-04 20:07 | 40.50008 | -3.56265 | 1980 ft | 20 kts | 359° |
| 2026-05-04 20:08 | 40.50108 | -3.56228 | 1980 ft | 12 kts | 68° |
| 2026-05-04 20:08 | 40.50116 | -3.56128 | 1980 ft | 7 kts | 88° |
| 2026-05-04 20:08 | 40.50119 | -3.56069 | 1980 ft | 6 kts | 82° |
| 2026-05-04 20:08 | 40.50147 | -3.55967 | 1983 ft | 18 kts | 60° |
| 2026-05-04 20:09 | 40.50212 | -3.55922 | 1982 ft | 16 kts | 2° |
| 2026-05-04 20:09 | 40.50390 | -3.55925 | 1980 ft | 48 kts | 359° |
| 2026-05-04 20:09 | 40.50966 | -3.55934 | 1981 ft | 114 kts | 358° |
| 2026-05-04 20:09 | 40.51937 | -3.55933 | 1981 ft | 163 kts | 0° |
| 2026-05-04 20:10 | 40.53143 | -3.55928 | 2414 ft | 173 kts | 357° |
| 2026-05-04 20:10 | 40.54328 | -3.55831 | 3224 ft | 169 kts | 9° |
| 2026-05-04 20:10 | 40.55452 | -3.55384 | 3925 ft | 170 kts | 20° |
| 2026-05-04 20:10 | 40.56534 | -3.54725 | 4525 ft | 175 kts | 22° |
| 2026-05-04 20:11 | 40.57673 | -3.54075 | 4917 ft | 186 kts | 19° |
| 2026-05-04 20:11 | 40.58905 | -3.53434 | 5386 ft | 195 kts | 20° |
| 2026-05-04 20:11 | 40.60101 | -3.52523 | 5920 ft | 203 kts | 36° |
| 2026-05-04 20:11 | 40.61169 | -3.51278 | 6455 ft | 210 kts | 40° |
| 2026-05-04 20:12 | 40.62330 | -3.49983 | 6707 ft | 230 kts | 36° |
| 2026-05-04 20:12 | 40.63655 | -3.48647 | 7164 ft | 246 kts | 35° |
| 2026-05-04 20:12 | 40.65029 | -3.47258 | 7889 ft | 251 kts | 36° |
| 2026-05-04 20:12 | 40.66415 | -3.45818 | 8664 ft | 256 kts | 37° |
| 2026-05-04 20:13 | 40.67811 | -3.44327 | 9455 ft | 261 kts | 38° |
| 2026-05-04 20:13 | 40.69218 | -3.42789 | 10204 ft | 266 kts | 38° |
| 2026-05-04 20:13 | 40.70650 | -3.41204 | 10910 ft | 271 kts | 39° |
| 2026-05-04 20:13 | 40.72100 | -3.39589 | 11613 ft | 276 kts | 39° |
| 2026-05-04 20:14 | 40.73418 | -3.37734 | 12288 ft | 283 kts | 59° |
| 2026-05-04 20:14 | 40.74133 | -3.35228 | 12564 ft | 304 kts | 85° |
| 2026-05-04 20:14 | 40.73942 | -3.32403 | 12798 ft | 320 kts | 113° |
| 2026-05-04 20:14 | 40.72765 | -3.29859 | 13015 ft | 335 kts | 134° |
| 2026-05-04 20:15 | 40.71205 | -3.27446 | 13217 ft | 356 kts | 134° |
| 2026-05-04 20:15 | 40.69565 | -3.24947 | 13745 ft | 365 kts | 134° |
| 2026-05-04 20:15 | 40.67901 | -3.22406 | 14352 ft | 369 kts | 134° |
| 2026-05-04 20:15 | 40.66235 | -3.19852 | 14964 ft | 374 kts | 134° |
| 2026-05-04 20:16 | 40.64538 | -3.17236 | 15572 ft | 378 kts | 134° |
| 2026-05-04 20:16 | 40.62851 | -3.14622 | 15863 ft | 367 kts | 134° |
| 2026-05-04 20:16 | 40.61202 | -3.12060 | 15992 ft | 372 kts | 134° |
| 2026-05-04 20:16 | 40.59500 | -3.09434 | 16396 ft | 382 kts | 134° |
| 2026-05-04 20:17 | 40.57760 | -3.06756 | 16963 ft | 388 kts | 135° |
| 2026-05-04 20:17 | 40.55996 | -3.04044 | 17554 ft | 392 kts | 135° |
| 2026-05-04 20:17 | 40.54211 | -3.01306 | 18151 ft | 396 kts | 135° |
| 2026-05-04 20:17 | 40.52412 | -2.98546 | 18674 ft | 400 kts | 135° |
| 2026-05-04 20:18 | 40.50588 | -2.95752 | 19190 ft | 404 kts | 135° |
| 2026-05-04 20:18 | 40.48749 | -2.92938 | 19698 ft | 407 kts | 135° |
| 2026-05-04 20:18 | 40.46904 | -2.90109 | 20199 ft | 411 kts | 135° |
| 2026-05-04 20:18 | 40.45035 | -2.87243 | 20721 ft | 414 kts | 135° |
| 2026-05-04 20:19 | 40.43153 | -2.84362 | 21201 ft | 417 kts | 135° |
| 2026-05-04 20:19 | 40.41257 | -2.81463 | 21680 ft | 421 kts | 135° |
| 2026-05-04 20:19 | 40.39338 | -2.78536 | 22158 ft | 424 kts | 135° |
| 2026-05-04 20:19 | 40.37407 | -2.75595 | 22618 ft | 428 kts | 135° |
| 2026-05-04 20:20 | 40.35461 | -2.72634 | 23080 ft | 431 kts | 136° |
| 2026-05-04 20:20 | 40.33498 | -2.69650 | 23534 ft | 434 kts | 136° |
| 2026-05-04 20:20 | 40.31516 | -2.66638 | 23916 ft | 437 kts | 136° |
| 2026-05-04 20:20 | 40.29525 | -2.63614 | 24296 ft | 440 kts | 136° |
| 2026-05-04 20:21 | 40.27521 | -2.60568 | 24657 ft | 443 kts | 136° |
| 2026-05-04 20:21 | 40.25493 | -2.57491 | 25010 ft | 446 kts | 136° |
| 2026-05-04 20:21 | 40.21418 | -2.51333 | 25723 ft | 451 kts | 136° |
| 2026-05-04 20:22 | 40.19354 | -2.48220 | 26066 ft | 454 kts | 136° |
| 2026-05-04 20:22 | 40.17305 | -2.45133 | 26401 ft | 457 kts | 137° |
| 2026-05-04 20:22 | 40.15214 | -2.41981 | 26742 ft | 460 kts | 137° |
| 2026-05-04 20:22 | 40.13116 | -2.38823 | 27084 ft | 462 kts | 137° |
| 2026-05-04 20:23 | 40.10999 | -2.35637 | 27435 ft | 465 kts | 137° |
| 2026-05-04 20:23 | 40.08877 | -2.32445 | 27780 ft | 468 kts | 137° |
| 2026-05-04 20:23 | 40.06733 | -2.29228 | 28115 ft | 470 kts | 137° |
| 2026-05-04 20:23 | 40.04581 | -2.26002 | 28434 ft | 473 kts | 137° |
| 2026-05-04 20:24 | 40.02417 | -2.22758 | 28737 ft | 475 kts | 137° |
| 2026-05-04 20:24 | 40.00237 | -2.19497 | 29039 ft | 477 kts | 137° |
| 2026-05-04 20:24 | 39.98199 | -2.16032 | 29323 ft | 486 kts | 129° |
| 2026-05-04 20:24 | 39.96399 | -2.12277 | 29611 ft | 491 kts | 126° |
| 2026-05-04 20:25 | 39.94720 | -2.08373 | 29896 ft | 496 kts | 123° |
| 2026-05-04 20:25 | 39.93117 | -2.04374 | 30160 ft | 499 kts | 122° |
| 2026-05-04 20:25 | 39.91538 | -2.00348 | 30442 ft | 499 kts | 122° |
| 2026-05-04 20:25 | 39.89947 | -1.96335 | 30795 ft | 498 kts | 123° |
| 2026-05-04 20:26 | 39.88323 | -1.92356 | 31133 ft | 497 kts | 123° |
| 2026-05-04 20:26 | 39.86661 | -1.88413 | 31460 ft | 496 kts | 124° |
| 2026-05-04 20:26 | 39.84976 | -1.84495 | 31801 ft | 496 kts | 124° |
| 2026-05-04 20:26 | 39.83278 | -1.80589 | 31966 ft | 495 kts | 125° |
| 2026-05-04 20:27 | 39.79919 | -1.72831 | 31999 ft | 490 kts | 124° |
| 2026-05-04 20:27 | 39.76602 | -1.65102 | 31991 ft | 489 kts | 124° |
| 2026-05-04 20:28 | 39.73296 | -1.57386 | 31990 ft | 489 kts | 124° |
| 2026-05-04 20:28 | 39.69980 | -1.49667 | 31997 ft | 489 kts | 124° |
| 2026-05-04 20:29 | 39.66662 | -1.41983 | 31987 ft | 488 kts | 124° |
| 2026-05-04 20:29 | 39.63351 | -1.34358 | 31983 ft | 488 kts | 124° |
| 2026-05-04 20:30 | 39.60021 | -1.26700 | 31976 ft | 487 kts | 125° |
| 2026-05-04 20:30 | 39.56688 | -1.19048 | 31973 ft | 487 kts | 124° |
| 2026-05-04 20:31 | 39.53362 | -1.11420 | 31969 ft | 486 kts | 125° |
| 2026-05-04 20:31 | 39.50033 | -1.03806 | 31957 ft | 486 kts | 125° |
| 2026-05-04 20:32 | 39.46690 | -0.96186 | 31949 ft | 485 kts | 125° |
| 2026-05-04 20:32 | 39.43378 | -0.88634 | 31681 ft | 477 kts | 125° |
| 2026-05-04 20:33 | 39.41753 | -0.84916 | 31084 ft | 473 kts | 125° |
| 2026-05-04 20:33 | 39.40138 | -0.81224 | 30528 ft | 470 kts | 125° |
| 2026-05-04 20:33 | 39.38531 | -0.77569 | 29962 ft | 467 kts | 125° |
| 2026-05-04 20:33 | 39.36929 | -0.73947 | 29307 ft | 463 kts | 125° |
| 2026-05-04 20:34 | 39.35326 | -0.70339 | 28669 ft | 460 kts | 125° |
| 2026-05-04 20:34 | 39.33736 | -0.66771 | 28052 ft | 457 kts | 125° |
| 2026-05-04 20:34 | 39.32153 | -0.63223 | 27431 ft | 455 kts | 125° |
| 2026-05-04 20:34 | 39.30630 | -0.59706 | 26852 ft | 457 kts | 121° |
| 2026-05-04 20:35 | 39.29457 | -0.55882 | 26261 ft | 463 kts | 110° |
| 2026-05-04 20:35 | 39.28790 | -0.51793 | 25970 ft | 470 kts | 99° |
| 2026-05-04 20:35 | 39.28636 | -0.47559 | 25653 ft | 472 kts | 89° |
| 2026-05-04 20:35 | 39.28856 | -0.43351 | 25428 ft | 469 kts | 88° |
| 2026-05-04 20:36 | 39.29085 | -0.39171 | 25242 ft | 468 kts | 88° |
| 2026-05-04 20:36 | 39.29309 | -0.34977 | 25046 ft | 467 kts | 88° |
| 2026-05-04 20:36 | 39.29528 | -0.30816 | 24859 ft | 466 kts | 88° |
| 2026-05-04 20:36 | 39.29746 | -0.26651 | 24667 ft | 464 kts | 88° |
| 2026-05-04 20:37 | 39.29961 | -0.22494 | 24479 ft | 463 kts | 88° |
| 2026-05-04 20:37 | 39.30173 | -0.18344 | 24278 ft | 462 kts | 88° |
| 2026-05-04 20:37 | 39.30383 | -0.14215 | 24083 ft | 461 kts | 88° |
| 2026-05-04 20:37 | 39.30592 | -0.10087 | 23890 ft | 460 kts | 89° |
| 2026-05-04 20:38 | 39.30798 | -0.05968 | 23690 ft | 459 kts | 89° |
| 2026-05-04 20:38 | 39.31003 | -0.01861 | 23499 ft | 458 kts | 89° |
| 2026-05-04 20:38 | 39.31207 | 0.02240 | 23291 ft | 457 kts | 89° |
| 2026-05-04 20:38 | 39.31410 | 0.06333 | 23104 ft | 456 kts | 89° |
| 2026-05-04 20:39 | 39.31609 | 0.10410 | 22912 ft | 455 kts | 89° |
| 2026-05-04 20:39 | 39.31808 | 0.14481 | 22724 ft | 453 kts | 89° |
| 2026-05-04 20:39 | 39.32006 | 0.18526 | 22534 ft | 452 kts | 89° |
| 2026-05-04 20:39 | 39.32204 | 0.22586 | 22348 ft | 451 kts | 89° |
| 2026-05-04 20:40 | 39.32397 | 0.26620 | 22158 ft | 450 kts | 89° |
| 2026-05-04 20:40 | 39.32586 | 0.30645 | 21970 ft | 449 kts | 89° |
| 2026-05-04 20:40 | 39.32774 | 0.34662 | 21782 ft | 448 kts | 89° |
| 2026-05-04 20:40 | 39.32961 | 0.38665 | 21598 ft | 446 kts | 89° |
| 2026-05-04 20:41 | 39.33147 | 0.42673 | 21412 ft | 445 kts | 89° |
| 2026-05-04 20:41 | 39.33328 | 0.46611 | 21231 ft | 444 kts | 89° |
| 2026-05-04 20:41 | 39.33510 | 0.50635 | 21045 ft | 443 kts | 89° |
| 2026-05-04 20:41 | 39.33689 | 0.54551 | 20865 ft | 442 kts | 89° |
| 2026-05-04 20:42 | 39.33868 | 0.58505 | 20685 ft | 441 kts | 89° |
| 2026-05-04 20:42 | 39.34044 | 0.62448 | 20499 ft | 439 kts | 89° |
| 2026-05-04 20:42 | 39.34218 | 0.66382 | 20317 ft | 438 kts | 89° |
| 2026-05-04 20:42 | 39.34390 | 0.70308 | 20134 ft | 437 kts | 89° |
| 2026-05-04 20:43 | 39.34558 | 0.74232 | 19954 ft | 436 kts | 89° |
| 2026-05-04 20:43 | 39.34723 | 0.78126 | 19775 ft | 435 kts | 89° |
| 2026-05-04 20:43 | 39.34890 | 0.82025 | 19594 ft | 434 kts | 89° |
| 2026-05-04 20:43 | 39.35055 | 0.85910 | 19417 ft | 433 kts | 89° |
| 2026-05-04 20:44 | 39.35219 | 0.89786 | 19240 ft | 431 kts | 89° |
| 2026-05-04 20:44 | 39.35382 | 0.93650 | 19042 ft | 430 kts | 89° |
| 2026-05-04 20:44 | 39.35544 | 0.97504 | 18882 ft | 429 kts | 89° |
| 2026-05-04 20:44 | 39.35701 | 1.01346 | 18700 ft | 428 kts | 89° |
| 2026-05-04 20:45 | 39.35858 | 1.05175 | 18528 ft | 426 kts | 89° |
| 2026-05-04 20:45 | 39.36013 | 1.08997 | 18349 ft | 425 kts | 89° |
| 2026-05-04 20:45 | 39.36164 | 1.12803 | 18169 ft | 424 kts | 90° |
| 2026-05-04 20:45 | 39.36313 | 1.16597 | 17983 ft | 422 kts | 89° |
| 2026-05-04 20:46 | 39.36464 | 1.20388 | 17808 ft | 421 kts | 89° |
| 2026-05-04 20:46 | 39.36614 | 1.24143 | 17626 ft | 419 kts | 89° |
| 2026-05-04 20:46 | 39.36763 | 1.27908 | 17458 ft | 417 kts | 89° |
| 2026-05-04 20:46 | 39.36909 | 1.31639 | 17292 ft | 416 kts | 89° |
| 2026-05-04 20:47 | 39.37050 | 1.35366 | 17084 ft | 414 kts | 90° |
| 2026-05-04 20:47 | 39.37190 | 1.39079 | 16874 ft | 412 kts | 89° |
| 2026-05-04 20:47 | 39.37482 | 1.42753 | 16673 ft | 412 kts | 82° |
| 2026-05-04 20:47 | 39.37966 | 1.46401 | 16465 ft | 410 kts | 82° |
| 2026-05-04 20:48 | 39.38445 | 1.50017 | 16263 ft | 408 kts | 82° |
| 2026-05-04 20:48 | 39.38924 | 1.53630 | 16060 ft | 406 kts | 82° |
| 2026-05-04 20:48 | 39.39398 | 1.57220 | 15849 ft | 405 kts | 82° |
| 2026-05-04 20:48 | 39.39870 | 1.60807 | 15660 ft | 403 kts | 82° |
| 2026-05-04 20:49 | 39.40338 | 1.64380 | 15456 ft | 402 kts | 82° |
| 2026-05-04 20:49 | 39.40801 | 1.67923 | 15266 ft | 400 kts | 82° |
| 2026-05-04 20:49 | 39.41255 | 1.71428 | 15023 ft | 399 kts | 82° |
| 2026-05-04 20:49 | 39.41714 | 1.74957 | 14754 ft | 397 kts | 82° |
| 2026-05-04 20:50 | 39.42170 | 1.78470 | 14493 ft | 395 kts | 82° |
| 2026-05-04 20:50 | 39.42622 | 1.81959 | 14231 ft | 392 kts | 82° |
| 2026-05-04 20:50 | 39.43068 | 1.85420 | 13970 ft | 390 kts | 82° |
| 2026-05-04 20:50 | 39.43512 | 1.88874 | 13708 ft | 388 kts | 82° |
| 2026-05-04 20:51 | 39.43949 | 1.92290 | 13411 ft | 381 kts | 82° |
| 2026-05-04 20:51 | 39.44375 | 1.95640 | 13125 ft | 373 kts | 82° |
| 2026-05-04 20:51 | 39.44789 | 1.98901 | 12826 ft | 358 kts | 82° |
| 2026-05-04 20:51 | 39.45192 | 2.01996 | 12545 ft | 341 kts | 79° |
| 2026-05-04 20:52 | 39.45849 | 2.04900 | 12269 ft | 335 kts | 71° |
| 2026-05-04 20:52 | 39.46602 | 2.07735 | 11981 ft | 332 kts | 72° |
| 2026-05-04 20:52 | 39.47346 | 2.10555 | 11712 ft | 329 kts | 72° |
| 2026-05-04 20:52 | 39.48080 | 2.13345 | 11437 ft | 327 kts | 72° |
| 2026-05-04 20:53 | 39.48809 | 2.16117 | 11171 ft | 325 kts | 72° |
| 2026-05-04 20:53 | 39.49585 | 2.18943 | 10981 ft | 350 kts | 69° |
| 2026-05-04 20:53 | 39.50541 | 2.21923 | 10968 ft | 364 kts | 67° |
| 2026-05-04 20:53 | 39.51525 | 2.24924 | 10964 ft | 354 kts | 67° |
| 2026-05-04 20:54 | 39.52440 | 2.27705 | 10835 ft | 341 kts | 67° |
| 2026-05-04 20:54 | 39.53346 | 2.30465 | 10568 ft | 326 kts | 67° |
| 2026-05-04 20:54 | 39.54226 | 2.33144 | 10330 ft | 321 kts | 67° |
| 2026-05-04 20:54 | 39.55096 | 2.35792 | 10093 ft | 318 kts | 67° |
| 2026-05-04 20:55 | 39.55961 | 2.38418 | 9860 ft | 316 kts | 67° |
| 2026-05-04 20:55 | 39.56820 | 2.41038 | 9599 ft | 313 kts | 67° |
| 2026-05-04 20:55 | 39.57656 | 2.43591 | 9343 ft | 304 kts | 67° |
| 2026-05-04 20:55 | 39.58479 | 2.46095 | 9079 ft | 299 kts | 67° |
| 2026-05-04 20:56 | 39.59267 | 2.48517 | 8826 ft | 293 kts | 67° |
| 2026-05-04 20:56 | 39.60061 | 2.50968 | 8572 ft | 289 kts | 67° |
| 2026-05-04 20:56 | 39.60820 | 2.53325 | 8326 ft | 286 kts | 67° |
| 2026-05-04 20:56 | 39.61595 | 2.55729 | 8072 ft | 284 kts | 67° |
| 2026-05-04 20:57 | 39.62340 | 2.58053 | 7821 ft | 282 kts | 67° |
| 2026-05-04 20:57 | 39.63089 | 2.60400 | 7578 ft | 281 kts | 67° |
| 2026-05-04 20:57 | 39.63825 | 2.62738 | 7334 ft | 279 kts | 67° |
| 2026-05-04 20:57 | 39.64557 | 2.65066 | 7091 ft | 278 kts | 67° |
| 2026-05-04 20:58 | 39.65284 | 2.67388 | 6849 ft | 277 kts | 67° |
| 2026-05-04 20:58 | 39.66004 | 2.69706 | 6564 ft | 276 kts | 67° |
| 2026-05-04 20:58 | 39.66717 | 2.72010 | 6240 ft | 275 kts | 67° |
| 2026-05-04 20:58 | 39.67427 | 2.74306 | 5914 ft | 273 kts | 67° |
| 2026-05-04 20:59 | 39.68133 | 2.76586 | 5582 ft | 272 kts | 67° |
| 2026-05-04 20:59 | 39.68843 | 2.78862 | 5255 ft | 271 kts | 67° |
| 2026-05-04 20:59 | 39.69556 | 2.81115 | 5029 ft | 269 kts | 67° |
| 2026-05-04 20:59 | 39.70264 | 2.83370 | 5001 ft | 268 kts | 67° |
| 2026-05-04 21:00 | 39.70957 | 2.85565 | 5001 ft | 261 kts | 67° |
| 2026-05-04 21:00 | 39.71411 | 2.87003 | 4998 ft | 260 kts | 67° |
| 2026-05-04 21:00 | 39.71823 | 2.89273 | 5001 ft | 259 kts | 88° |
| 2026-05-04 21:00 | 39.71862 | 2.91611 | 5004 ft | 258 kts | 91° |
| 2026-05-04 21:01 | 39.71843 | 2.93948 | 4999 ft | 259 kts | 92° |
| 2026-05-04 21:01 | 39.71815 | 2.96279 | 4991 ft | 258 kts | 93° |
| 2026-05-04 21:01 | 39.71451 | 2.98534 | 4994 ft | 254 kts | 121° |
| 2026-05-04 21:01 | 39.70331 | 3.00232 | 4881 ft | 246 kts | 152° |
| 2026-05-04 21:02 | 39.68771 | 3.00928 | 4491 ft | 234 kts | 186° |
| 2026-05-04 21:02 | 39.67275 | 3.00384 | 4246 ft | 220 kts | 217° |
| 2026-05-04 21:02 | 39.66264 | 2.98991 | 4007 ft | 210 kts | 239° |
| 2026-05-04 21:02 | 39.65514 | 2.97384 | 3751 ft | 208 kts | 240° |
| 2026-05-04 21:03 | 39.64769 | 2.95779 | 3479 ft | 208 kts | 240° |
| 2026-05-04 21:03 | 39.64019 | 2.94175 | 3208 ft | 208 kts | 239° |
| 2026-05-04 21:03 | 39.63270 | 2.92579 | 2925 ft | 206 kts | 239° |
| 2026-05-04 21:03 | 39.62537 | 2.91020 | 2655 ft | 198 kts | 239° |
| 2026-05-04 21:04 | 39.61836 | 2.89529 | 2404 ft | 190 kts | 239° |
| 2026-05-04 21:04 | 39.61172 | 2.88118 | 2175 ft | 176 kts | 238° |
| 2026-05-04 21:04 | 39.60568 | 2.86834 | 1950 ft | 156 kts | 237° |
| 2026-05-04 21:04 | 39.60025 | 2.85680 | 1745 ft | 145 kts | 238° |
| 2026-05-04 21:05 | 39.59520 | 2.84609 | 1554 ft | 137 kts | 238° |
| 2026-05-04 21:05 | 39.59033 | 2.83574 | 1380 ft | 132 kts | 238° |
| 2026-05-04 21:05 | 39.58553 | 2.82555 | 1200 ft | 133 kts | 238° |
| 2026-05-04 21:05 | 39.58067 | 2.81524 | 1025 ft | 134 kts | 238° |
| 2026-05-04 21:06 | 39.57583 | 2.80495 | 814 ft | 135 kts | 238° |
| 2026-05-04 21:06 | 39.57092 | 2.79463 | 637 ft | 134 kts | 237° |
| 2026-05-04 21:06 | 39.56609 | 2.78452 | 460 ft | 133 kts | 239° |
| 2026-05-04 21:06 | 39.56139 | 2.77413 | 270 ft | 133 kts | 238° |
| 2026-05-04 21:07 | 39.55648 | 2.76375 | 95 ft | 133 kts | 238° |
| 2026-05-04 21:07 | 39.55185 | 2.75395 | 28 ft | 117 kts | 238° |
| 2026-05-04 21:07 | 39.54849 | 2.74694 | 33 ft | 67 kts | 238° |
| 2026-05-04 21:07 | 39.54655 | 2.74288 | 36 ft | 40 kts | 238° |
| 2026-05-04 21:08 | 39.54561 | 2.74024 | 36 ft | 28 kts | 258° |
| 2026-05-04 21:08 | 39.54551 | 2.73858 | 35 ft | 16 kts | 270° |
| 2026-05-04 21:08 | 39.54554 | 2.73787 | 36 ft | 0 kts | 273° |
| 2026-05-04 21:09 | 39.54554 | 2.73780 | 36 ft | 5 kts | 273° |
| 2026-05-04 21:09 | 39.54560 | 2.73697 | 36 ft | 10 kts | 283° |
| 2026-05-04 21:09 | 39.54597 | 2.73636 | 36 ft | 4 kts | 326° |
| 2026-05-04 21:09 | 39.54617 | 2.73607 | 36 ft | 7 kts | 298° |
| 2026-05-04 21:10 | 39.54649 | 2.73528 | 36 ft | 8 kts | 336° |
| 2026-05-04 21:10 | 39.54693 | 2.73500 | 34 ft | 6 kts | 330° |
| 2026-05-04 21:10 | 39.54715 | 2.73462 | 36 ft | 5 kts | 272° |
| 2026-05-04 21:10 | 39.54703 | 2.73430 | 34 ft | 3 kts | 237° |
| 2026-05-04 21:11 | 39.54692 | 2.73409 | 36 ft | 2 kts | 236° |
| 2026-05-04 21:11 | 39.54687 | 2.73399 | 36 ft | 0 kts | 237° |